sensor_id;sensor_type;location;lat;lon;timestamp;temperature;humidity
76211;DHT22;65003;49.518;11.280;2023-05-10T00:00:57;16.20;57.40
76211;DHT22;65003;49.518;11.280;2023-05-10T00:03:24;16.40;57.10
76211;DHT22;65003;49.518;11.280;2023-05-10T00:05:50;16.60;56.50
76211;DHT22;65003;49.518;11.280;2023-05-10T00:08:17;16.80;56.50
76211;DHT22;65003;49.518;11.280;2023-05-10T00:10:43;16.90;56.00
76211;DHT22;65003;49.518;11.280;2023-05-10T00:13:10;17.00;55.70
76211;DHT22;65003;49.518;11.280;2023-05-10T00:15:37;17.00;55.70
76211;DHT22;65003;49.518;11.280;2023-05-10T00:18:03;17.10;56.40
76211;DHT22;65003;49.518;11.280;2023-05-10T00:20:30;17.10;55.40
76211;DHT22;65003;49.518;11.280;2023-05-10T00:22:56;17.20;55.20
76211;DHT22;65003;49.518;11.280;2023-05-10T00:25:23;17.20;54.70
76211;DHT22;65003;49.518;11.280;2023-05-10T00:27:50;17.20;54.80
76211;DHT22;65003;49.518;11.280;2023-05-10T00:30:16;17.30;54.80
76211;DHT22;65003;49.518;11.280;2023-05-10T00:32:43;17.30;54.60
76211;DHT22;65003;49.518;11.280;2023-05-10T00:35:09;17.30;56.10
76211;DHT22;65003;49.518;11.280;2023-05-10T00:37:36;17.30;55.10
76211;DHT22;65003;49.518;11.280;2023-05-10T00:40:03;17.30;55.30
76211;DHT22;65003;49.518;11.280;2023-05-10T00:42:29;17.20;55.30
76211;DHT22;65003;49.518;11.280;2023-05-10T00:44:56;16.90;56.00
76211;DHT22;65003;49.518;11.280;2023-05-10T00:47:23;16.60;56.70
76211;DHT22;65003;49.518;11.280;2023-05-10T00:49:49;16.40;57.90
76211;DHT22;65003;49.518;11.280;2023-05-10T00:52:16;15.40;58.70
76211;DHT22;65003;49.518;11.280;2023-05-10T00:54:42;16.50;58.50
76211;DHT22;65003;49.518;11.280;2023-05-10T00:57:09;18.60;59.10
76211;DHT22;65003;49.518;11.280;2023-05-10T00:59:36;16.80;57.40
76211;DHT22;65003;49.518;11.280;2023-05-10T01:02:03;16.80;57.70
76211;DHT22;65003;49.518;11.280;2023-05-10T01:04:29;17.10;57.80
76211;DHT22;65003;49.518;11.280;2023-05-10T01:06:56;17.00;57.90
76211;DHT22;65003;49.518;11.280;2023-05-10T01:09:22;17.00;59.00
76211;DHT22;65003;49.518;11.280;2023-05-10T01:11:49;17.10;59.70
76211;DHT22;65003;49.518;11.280;2023-05-10T01:14:16;17.10;61.10
76211;DHT22;65003;49.518;11.280;2023-05-10T01:16:42;17.10;61.40
76211;DHT22;65003;49.518;11.280;2023-05-10T01:19:16;17.10;62.30
76211;DHT22;65003;49.518;11.280;2023-05-10T01:21:49;17.00;62.50
76211;DHT22;65003;49.518;11.280;2023-05-10T01:24:24;17.10;63.10
76211;DHT22;65003;49.518;11.280;2023-05-10T01:27:03;17.10;62.60
76211;DHT22;65003;49.518;11.280;2023-05-10T01:29:38;17.10;61.80
76211;DHT22;65003;49.518;11.280;2023-05-10T01:32:05;17.10;62.10
76211;DHT22;65003;49.518;11.280;2023-05-10T01:34:31;15.50;61.20
76211;DHT22;65003;49.518;11.280;2023-05-10T01:36:59;17.10;62.90
76211;DHT22;65003;49.518;11.280;2023-05-10T01:39:32;17.00;64.10
76211;DHT22;65003;49.518;11.280;2023-05-10T01:42:04;16.90;66.50
76211;DHT22;65003;49.518;11.280;2023-05-10T01:44:35;16.70;69.20
76211;DHT22;65003;49.518;11.280;2023-05-10T01:47:04;16.50;71.50
76211;DHT22;65003;49.518;11.280;2023-05-10T01:49:29;16.50;72.10
76211;DHT22;65003;49.518;11.280;2023-05-10T01:51:57;16.50;73.20
76211;DHT22;65003;49.518;11.280;2023-05-10T01:54:22;16.50;74.20
76211;DHT22;65003;49.518;11.280;2023-05-10T01:56:50;16.50;74.70
76211;DHT22;65003;49.518;11.280;2023-05-10T01:59:16;16.50;76.00
76211;DHT22;65003;49.518;11.280;2023-05-10T02:01:42;16.40;77.30
76211;DHT22;65003;49.518;11.280;2023-05-10T02:04:08;16.40;79.70
76211;DHT22;65003;49.518;11.280;2023-05-10T02:06:35;16.30;80.60
76211;DHT22;65003;49.518;11.280;2023-05-10T02:09:01;16.30;81.00
76211;DHT22;65003;49.518;11.280;2023-05-10T02:11:28;16.20;82.10
76211;DHT22;65003;49.518;11.280;2023-05-10T02:13:55;16.20;82.20
76211;DHT22;65003;49.518;11.280;2023-05-10T02:16:22;16.20;82.60
76211;DHT22;65003;49.518;11.280;2023-05-10T02:18:48;16.20;83.00
76211;DHT22;65003;49.518;11.280;2023-05-10T02:21:14;16.20;83.60
76211;DHT22;65003;49.518;11.280;2023-05-10T02:23:41;16.40;83.40
76211;DHT22;65003;49.518;11.280;2023-05-10T02:26:07;16.40;83.70
76211;DHT22;65003;49.518;11.280;2023-05-10T02:28:34;16.40;84.10
76211;DHT22;65003;49.518;11.280;2023-05-10T02:31:01;16.40;84.70
76211;DHT22;65003;49.518;11.280;2023-05-10T02:33:28;16.40;85.10
76211;DHT22;65003;49.518;11.280;2023-05-10T02:35:55;16.50;85.30
76211;DHT22;65003;49.518;11.280;2023-05-10T02:38:21;16.50;85.90
76211;DHT22;65003;49.518;11.280;2023-05-10T02:40:48;16.50;85.80
76211;DHT22;65003;49.518;11.280;2023-05-10T02:43:15;16.40;87.10
76211;DHT22;65003;49.518;11.280;2023-05-10T02:45:41;16.20;87.90
76211;DHT22;65003;49.518;11.280;2023-05-10T02:48:08;16.10;88.80
76211;DHT22;65003;49.518;11.280;2023-05-10T02:50:34;15.90;89.80
76211;DHT22;65003;49.518;11.280;2023-05-10T02:53:03;15.70;90.70
76211;DHT22;65003;49.518;11.280;2023-05-10T02:55:31;15.60;91.10
76211;DHT22;65003;49.518;11.280;2023-05-10T02:57:56;15.70;90.90
76211;DHT22;65003;49.518;11.280;2023-05-10T03:00:21;15.80;90.90
76211;DHT22;65003;49.518;11.280;2023-05-10T03:02:48;15.80;91.00
76211;DHT22;65003;49.518;11.280;2023-05-10T03:05:15;15.70;91.30
76211;DHT22;65003;49.518;11.280;2023-05-10T03:07:41;15.70;91.50
76211;DHT22;65003;49.518;11.280;2023-05-10T03:10:08;15.60;91.90
76211;DHT22;65003;49.518;11.280;2023-05-10T03:12:44;15.60;92.10
76211;DHT22;65003;49.518;11.280;2023-05-10T03:15:13;15.80;91.70
76211;DHT22;65003;49.518;11.280;2023-05-10T03:18:18;16.00;91.30
76211;DHT22;65003;49.518;11.280;2023-05-10T03:20:26;16.00;91.40
76211;DHT22;65003;49.518;11.280;2023-05-10T03:22:54;15.90;91.60
76211;DHT22;65003;49.518;11.280;2023-05-10T03:25:19;16.00;91.50
76211;DHT22;65003;49.518;11.280;2023-05-10T03:27:45;16.00;91.50
76211;DHT22;65003;49.518;11.280;2023-05-10T03:30:12;16.00;91.60
76211;DHT22;65003;49.518;11.280;2023-05-10T03:32:38;15.90;92.00
76211;DHT22;65003;49.518;11.280;2023-05-10T03:35:08;15.70;92.50
76211;DHT22;65003;49.518;11.280;2023-05-10T03:37:34;15.70;92.70
76211;DHT22;65003;49.518;11.280;2023-05-10T03:40:01;15.70;92.90
76211;DHT22;65003;49.518;11.280;2023-05-10T03:42:27;15.70;93.00
76211;DHT22;65003;49.518;11.280;2023-05-10T03:44:54;15.70;92.80
76211;DHT22;65003;49.518;11.280;2023-05-10T03:47:21;15.80;92.60
76211;DHT22;65003;49.518;11.280;2023-05-10T03:49:47;15.80;92.70
76211;DHT22;65003;49.518;11.280;2023-05-10T03:52:14;15.60;93.00
76211;DHT22;65003;49.518;11.280;2023-05-10T03:54:41;15.70;93.00
76211;DHT22;65003;49.518;11.280;2023-05-10T03:57:07;15.70;92.70
76211;DHT22;65003;49.518;11.280;2023-05-10T03:59:34;15.70;92.80
76211;DHT22;65003;49.518;11.280;2023-05-10T04:02:00;15.60;92.80
76211;DHT22;65003;49.518;11.280;2023-05-10T04:04:27;15.50;93.00
76211;DHT22;65003;49.518;11.280;2023-05-10T04:06:54;15.40;93.10
76211;DHT22;65003;49.518;11.280;2023-05-10T04:09:20;15.40;93.40
76211;DHT22;65003;49.518;11.280;2023-05-10T04:11:47;15.50;93.30
76211;DHT22;65003;49.518;11.280;2023-05-10T04:14:13;15.50;93.10
76211;DHT22;65003;49.518;11.280;2023-05-10T04:16:40;15.40;93.20
76211;DHT22;65003;49.518;11.280;2023-05-10T04:19:07;15.30;93.70
76211;DHT22;65003;49.518;11.280;2023-05-10T04:21:33;15.20;93.70
76211;DHT22;65003;49.518;11.280;2023-05-10T04:24:00;15.10;94.10
76211;DHT22;65003;49.518;11.280;2023-05-10T04:26:26;15.10;94.10
76211;DHT22;65003;49.518;11.280;2023-05-10T04:28:53;15.10;93.90
76211;DHT22;65003;49.518;11.280;2023-05-10T04:31:20;15.20;93.90
76211;DHT22;65003;49.518;11.280;2023-05-10T04:33:46;15.20;93.70
76211;DHT22;65003;49.518;11.280;2023-05-10T04:36:13;15.10;94.00
76211;DHT22;65003;49.518;11.280;2023-05-10T04:38:39;15.00;94.10
76211;DHT22;65003;49.518;11.280;2023-05-10T04:41:06;15.00;94.10
76211;DHT22;65003;49.518;11.280;2023-05-10T04:43:33;15.00;94.20
76211;DHT22;65003;49.518;11.280;2023-05-10T04:45:59;15.00;94.10
76211;DHT22;65003;49.518;11.280;2023-05-10T04:48:26;15.00;94.00
76211;DHT22;65003;49.518;11.280;2023-05-10T04:50:52;15.00;94.00
76211;DHT22;65003;49.518;11.280;2023-05-10T04:53:19;15.00;94.10
76211;DHT22;65003;49.518;11.280;2023-05-10T04:55:45;15.00;94.00
76211;DHT22;65003;49.518;11.280;2023-05-10T04:58:12;15.00;93.90
76211;DHT22;65003;49.518;11.280;2023-05-10T05:00:39;15.10;93.90
76211;DHT22;65003;49.518;11.280;2023-05-10T05:03:05;15.10;93.80
76211;DHT22;65003;49.518;11.280;2023-05-10T05:05:32;15.10;93.80
76211;DHT22;65003;49.518;11.280;2023-05-10T05:07:59;15.10;93.70
76211;DHT22;65003;49.518;11.280;2023-05-10T05:10:25;15.10;93.70
76211;DHT22;65003;49.518;11.280;2023-05-10T05:12:52;15.10;93.50
76211;DHT22;65003;49.518;11.280;2023-05-10T05:15:18;15.10;93.70
76211;DHT22;65003;49.518;11.280;2023-05-10T05:17:45;15.10;93.80
76211;DHT22;65003;49.518;11.280;2023-05-10T05:20:12;15.10;93.80
76211;DHT22;65003;49.518;11.280;2023-05-10T05:22:38;15.20;93.60
76211;DHT22;65003;49.518;11.280;2023-05-10T05:25:06;15.20;93.10
76211;DHT22;65003;49.518;11.280;2023-05-10T05:27:32;15.30;93.40
76211;DHT22;65003;49.518;11.280;2023-05-10T05:29:59;15.30;93.20
76211;DHT22;65003;49.518;11.280;2023-05-10T05:32:26;15.50;93.00
76211;DHT22;65003;49.518;11.280;2023-05-10T05:34:53;15.60;92.60
76211;DHT22;65003;49.518;11.280;2023-05-10T05:37:20;15.60;92.40
76211;DHT22;65003;49.518;11.280;2023-05-10T05:39:46;15.70;92.30
76211;DHT22;65003;49.518;11.280;2023-05-10T05:42:13;15.70;92.10
76211;DHT22;65003;49.518;11.280;2023-05-10T05:44:39;15.80;91.90
76211;DHT22;65003;49.518;11.280;2023-05-10T05:47:06;15.90;92.00
76211;DHT22;65003;49.518;11.280;2023-05-10T05:49:32;16.00;91.80
76211;DHT22;65003;49.518;11.280;2023-05-10T05:52:00;16.10;91.10
76211;DHT22;65003;49.518;11.280;2023-05-10T05:54:26;16.00;91.40
76211;DHT22;65003;49.518;11.280;2023-05-10T05:56:55;16.00;91.10
76211;DHT22;65003;49.518;11.280;2023-05-10T05:59:22;16.00;91.10
76211;DHT22;65003;49.518;11.280;2023-05-10T06:01:48;16.00;91.30
76211;DHT22;65003;49.518;11.280;2023-05-10T06:04:15;16.00;90.90
76211;DHT22;65003;49.518;11.280;2023-05-10T06:06:41;16.10;90.80
76211;DHT22;65003;49.518;11.280;2023-05-10T06:09:08;16.10;90.70
76211;DHT22;65003;49.518;11.280;2023-05-10T06:11:35;16.30;90.60
76211;DHT22;65003;49.518;11.280;2023-05-10T06:14:01;16.40;90.30
76211;DHT22;65003;49.518;11.280;2023-05-10T06:16:28;16.50;89.80
76211;DHT22;65003;49.518;11.280;2023-05-10T06:18:54;16.60;89.40
76211;DHT22;65003;49.518;11.280;2023-05-10T06:21:21;16.50;90.00
76211;DHT22;65003;49.518;11.280;2023-05-10T06:23:48;16.50;89.70
76211;DHT22;65003;49.518;11.280;2023-05-10T06:26:14;16.50;89.40
76211;DHT22;65003;49.518;11.280;2023-05-10T06:28:41;16.60;90.10
76211;DHT22;65003;49.518;11.280;2023-05-10T06:31:07;16.60;89.60
76211;DHT22;65003;49.518;11.280;2023-05-10T06:33:34;16.70;89.10
76211;DHT22;65003;49.518;11.280;2023-05-10T06:36:00;16.60;87.80
76211;DHT22;65003;49.518;11.280;2023-05-10T06:38:27;16.40;88.90
76211;DHT22;65003;49.518;11.280;2023-05-10T06:40:54;16.30;89.40
76211;DHT22;65003;49.518;11.280;2023-05-10T06:43:20;16.20;90.00
76211;DHT22;65003;49.518;11.280;2023-05-10T06:45:48;16.10;89.70
76211;DHT22;65003;49.518;11.280;2023-05-10T06:48:14;15.90;89.90
76211;DHT22;65003;49.518;11.280;2023-05-10T06:50:41;15.80;90.20
76211;DHT22;65003;49.518;11.280;2023-05-10T06:53:07;15.90;90.20
76211;DHT22;65003;49.518;11.280;2023-05-10T06:55:34;16.00;90.30
76211;DHT22;65003;49.518;11.280;2023-05-10T06:58:01;16.10;90.20
76211;DHT22;65003;49.518;11.280;2023-05-10T07:00:27;16.30;89.80
76211;DHT22;65003;49.518;11.280;2023-05-10T07:02:54;16.50;88.80
76211;DHT22;65003;49.518;11.280;2023-05-10T07:05:21;16.60;87.80
76211;DHT22;65003;49.518;11.280;2023-05-10T07:07:47;16.70;88.20
76211;DHT22;65003;49.518;11.280;2023-05-10T07:10:14;16.70;87.00
76211;DHT22;65003;49.518;11.280;2023-05-10T07:12:40;16.70;87.00
76211;DHT22;65003;49.518;11.280;2023-05-10T07:15:08;16.60;87.50
76211;DHT22;65003;49.518;11.280;2023-05-10T07:17:35;16.70;88.00
76211;DHT22;65003;49.518;11.280;2023-05-10T07:20:01;16.80;87.20
76211;DHT22;65003;49.518;11.280;2023-05-10T07:22:28;17.00;87.30
76211;DHT22;65003;49.518;11.280;2023-05-10T07:24:55;17.10;85.50
76211;DHT22;65003;49.518;11.280;2023-05-10T07:27:21;17.30;83.90
76211;DHT22;65003;49.518;11.280;2023-05-10T07:29:48;17.40;84.00
76211;DHT22;65003;49.518;11.280;2023-05-10T07:32:14;17.60;82.20
76211;DHT22;65003;49.518;11.280;2023-05-10T07:34:41;17.70;82.70
76211;DHT22;65003;49.518;11.280;2023-05-10T07:37:07;17.80;82.90
76211;DHT22;65003;49.518;11.280;2023-05-10T07:39:34;17.80;81.20
76211;DHT22;65003;49.518;11.280;2023-05-10T07:42:01;17.80;81.60
76211;DHT22;65003;49.518;11.280;2023-05-10T07:44:27;17.80;80.00
76211;DHT22;65003;49.518;11.280;2023-05-10T07:46:54;17.80;81.20
76211;DHT22;65003;49.518;11.280;2023-05-10T07:49:20;17.80;80.10
76211;DHT22;65003;49.518;11.280;2023-05-10T07:51:47;17.70;80.90
76211;DHT22;65003;49.518;11.280;2023-05-10T07:54:14;17.60;81.90
76211;DHT22;65003;49.518;11.280;2023-05-10T07:56:40;17.60;81.60
76211;DHT22;65003;49.518;11.280;2023-05-10T07:59:07;17.60;81.00
76211;DHT22;65003;49.518;11.280;2023-05-10T08:01:34;17.50;80.90
76211;DHT22;65003;49.518;11.280;2023-05-10T08:04:00;17.40;80.70
76211;DHT22;65003;49.518;11.280;2023-05-10T08:06:27;17.30;80.70
76211;DHT22;65003;49.518;11.280;2023-05-10T08:08:53;17.30;81.10
76211;DHT22;65003;49.518;11.280;2023-05-10T08:11:20;17.30;81.60
76211;DHT22;65003;49.518;11.280;2023-05-10T08:13:47;17.30;80.30
76211;DHT22;65003;49.518;11.280;2023-05-10T08:16:13;17.20;81.10
76211;DHT22;65003;49.518;11.280;2023-05-10T08:18:40;16.80;81.80
76211;DHT22;65003;49.518;11.280;2023-05-10T08:21:06;16.70;83.30
76211;DHT22;65003;49.518;11.280;2023-05-10T08:23:33;16.70;84.00
76211;DHT22;65003;49.518;11.280;2023-05-10T08:25:59;16.70;82.50
76211;DHT22;65003;49.518;11.280;2023-05-10T08:28:26;16.80;82.10
76211;DHT22;65003;49.518;11.280;2023-05-10T08:30:53;16.90;82.40
76211;DHT22;65003;49.518;11.280;2023-05-10T08:33:19;17.00;81.40
76211;DHT22;65003;49.518;11.280;2023-05-10T08:35:46;17.10;81.50
76211;DHT22;65003;49.518;11.280;2023-05-10T08:38:12;17.10;81.30
76211;DHT22;65003;49.518;11.280;2023-05-10T08:40:41;17.20;81.20
76211;DHT22;65003;49.518;11.280;2023-05-10T08:43:09;17.20;81.20
76211;DHT22;65003;49.518;11.280;2023-05-10T08:45:38;17.20;81.20
76211;DHT22;65003;49.518;11.280;2023-05-10T08:48:05;17.10;81.00
76211;DHT22;65003;49.518;11.280;2023-05-10T08:50:30;17.10;81.30
76211;DHT22;65003;49.518;11.280;2023-05-10T08:52:59;16.90;81.40
76211;DHT22;65003;49.518;11.280;2023-05-10T08:55:24;16.80;81.80
76211;DHT22;65003;49.518;11.280;2023-05-10T08:57:51;16.70;82.20
76211;DHT22;65003;49.518;11.280;2023-05-10T09:00:18;16.70;82.60
76211;DHT22;65003;49.518;11.280;2023-05-10T09:02:45;16.60;84.30
76211;DHT22;65003;49.518;11.280;2023-05-10T09:05:12;16.50;85.10
76211;DHT22;65003;49.518;11.280;2023-05-10T09:07:38;16.60;85.20
76211;DHT22;65003;49.518;11.280;2023-05-10T09:10:06;16.70;85.80
76211;DHT22;65003;49.518;11.280;2023-05-10T09:12:33;16.70;84.80
76211;DHT22;65003;49.518;11.280;2023-05-10T09:14:59;16.80;84.70
76211;DHT22;65003;49.518;11.280;2023-05-10T09:17:26;16.80;85.20
76211;DHT22;65003;49.518;11.280;2023-05-10T09:19:58;17.20;86.60
76211;DHT22;65003;49.518;11.280;2023-05-10T09:22:24;17.80;83.90
76211;DHT22;65003;49.518;11.280;2023-05-10T09:25:04;18.70;82.50
76211;DHT22;65003;49.518;11.280;2023-05-10T09:27:30;19.80;76.80
76211;DHT22;65003;49.518;11.280;2023-05-10T09:29:57;21.10;72.50
76211;DHT22;65003;49.518;11.280;2023-05-10T09:32:39;22.50;65.10
76211;DHT22;65003;49.518;11.280;2023-05-10T09:35:06;22.70;63.70
76211;DHT22;65003;49.518;11.280;2023-05-10T09:37:32;22.70;61.50
76211;DHT22;65003;49.518;11.280;2023-05-10T09:39:59;23.00;61.30
76211;DHT22;65003;49.518;11.280;2023-05-10T09:42:25;23.40;59.60
76211;DHT22;65003;49.518;11.280;2023-05-10T09:44:52;23.60;59.20
76211;DHT22;65003;49.518;11.280;2023-05-10T09:47:18;23.00;60.10
76211;DHT22;65003;49.518;11.280;2023-05-10T09:49:49;21.60;64.30
76211;DHT22;65003;49.518;11.280;2023-05-10T09:52:16;20.10;70.20
76211;DHT22;65003;49.518;11.280;2023-05-10T09:54:45;19.20;74.20
76211;DHT22;65003;49.518;11.280;2023-05-10T09:57:13;18.60;77.60
76211;DHT22;65003;49.518;11.280;2023-05-10T09:59:35;18.00;81.00
76211;DHT22;65003;49.518;11.280;2023-05-10T10:02:02;17.70;83.50
76211;DHT22;65003;49.518;11.280;2023-05-10T10:04:28;17.60;85.50
76211;DHT22;65003;49.518;11.280;2023-05-10T10:07:00;17.50;84.40
76211;DHT22;65003;49.518;11.280;2023-05-10T10:09:28;17.50;84.70
76211;DHT22;65003;49.518;11.280;2023-05-10T10:11:54;17.50;84.40
76211;DHT22;65003;49.518;11.280;2023-05-10T10:14:21;17.70;84.40
76211;DHT22;65003;49.518;11.280;2023-05-10T10:16:48;18.00;83.20
76211;DHT22;65003;49.518;11.280;2023-05-10T10:19:14;18.20;83.50
76211;DHT22;65003;49.518;11.280;2023-05-10T10:21:40;18.30;82.60
76211;DHT22;65003;49.518;11.280;2023-05-10T10:24:08;18.30;82.00
76211;DHT22;65003;49.518;11.280;2023-05-10T10:26:35;18.20;82.60
76211;DHT22;65003;49.518;11.280;2023-05-10T10:29:23;18.00;82.20
76211;DHT22;65003;49.518;11.280;2023-05-10T10:31:59;18.00;82.60
76211;DHT22;65003;49.518;11.280;2023-05-10T10:34:26;18.10;82.60
76211;DHT22;65003;49.518;11.280;2023-05-10T10:36:51;18.10;83.00
76211;DHT22;65003;49.518;11.280;2023-05-10T10:39:18;18.30;82.60
76211;DHT22;65003;49.518;11.280;2023-05-10T10:41:50;18.30;81.60
76211;DHT22;65003;49.518;11.280;2023-05-10T10:44:27;18.50;80.50
76211;DHT22;65003;49.518;11.280;2023-05-10T10:47:11;18.60;80.70
76211;DHT22;65003;49.518;11.280;2023-05-10T10:49:42;18.60;81.30
76211;DHT22;65003;49.518;11.280;2023-05-10T10:52:17;18.60;81.30
76211;DHT22;65003;49.518;11.280;2023-05-10T10:54:49;18.50;81.70
76211;DHT22;65003;49.518;11.280;2023-05-10T10:57:12;18.50;81.50
76211;DHT22;65003;49.518;11.280;2023-05-10T10:59:41;18.40;81.60
76211;DHT22;65003;49.518;11.280;2023-05-10T11:02:08;18.20;83.30
76211;DHT22;65003;49.518;11.280;2023-05-10T11:04:42;18.60;84.70
76211;DHT22;65003;49.518;11.280;2023-05-10T11:07:16;19.20;81.50
76211;DHT22;65003;49.518;11.280;2023-05-10T11:09:42;19.90;78.90
76211;DHT22;65003;49.518;11.280;2023-05-10T11:12:09;20.80;75.20
76211;DHT22;65003;49.518;11.280;2023-05-10T11:14:36;21.30;70.60
76211;DHT22;65003;49.518;11.280;2023-05-10T11:17:02;21.50;69.20
76211;DHT22;65003;49.518;11.280;2023-05-10T11:19:29;22.40;69.70
76211;DHT22;65003;49.518;11.280;2023-05-10T11:24:56;21.50;69.80
76211;DHT22;65003;49.518;11.280;2023-05-10T11:27:11;20.80;71.70
76211;DHT22;65003;49.518;11.280;2023-05-10T11:29:38;20.40;72.50
76211;DHT22;65003;49.518;11.280;2023-05-10T11:32:04;20.10;72.90
76211;DHT22;65003;49.518;11.280;2023-05-10T11:34:31;19.90;73.20
76211;DHT22;65003;49.518;11.280;2023-05-10T11:37:00;19.80;74.40
76211;DHT22;65003;49.518;11.280;2023-05-10T11:39:27;19.60;73.70
76211;DHT22;65003;49.518;11.280;2023-05-10T11:41:54;19.50;75.00
76211;DHT22;65003;49.518;11.280;2023-05-10T11:44:20;19.30;75.90
76211;DHT22;65003;49.518;11.280;2023-05-10T11:46:47;19.10;76.80
76211;DHT22;65003;49.518;11.280;2023-05-10T11:49:14;19.00;78.00
76211;DHT22;65003;49.518;11.280;2023-05-10T11:51:41;18.90;77.90
76211;DHT22;65003;49.518;11.280;2023-05-10T11:54:08;18.90;78.70
76211;DHT22;65003;49.518;11.280;2023-05-10T11:56:35;18.90;78.40
76211;DHT22;65003;49.518;11.280;2023-05-10T11:59:01;18.80;77.20
76211;DHT22;65003;49.518;11.280;2023-05-10T12:01:28;18.70;77.50
76211;DHT22;65003;49.518;11.280;2023-05-10T12:03:56;18.60;78.40
76211;DHT22;65003;49.518;11.280;2023-05-10T12:06:21;18.60;78.90
76211;DHT22;65003;49.518;11.280;2023-05-10T12:08:48;18.70;77.60
76211;DHT22;65003;49.518;11.280;2023-05-10T12:11:15;18.80;76.90
76211;DHT22;65003;49.518;11.280;2023-05-10T12:13:43;18.90;76.60
76211;DHT22;65003;49.518;11.280;2023-05-10T12:16:18;19.20;73.80
76211;DHT22;65003;49.518;11.280;2023-05-10T12:18:44;19.30;73.60
76211;DHT22;65003;49.518;11.280;2023-05-10T12:21:11;19.50;73.50
76211;DHT22;65003;49.518;11.280;2023-05-10T12:23:39;19.60;72.60
76211;DHT22;65003;49.518;11.280;2023-05-10T12:26:05;19.70;70.80
76211;DHT22;65003;49.518;11.280;2023-05-10T12:28:32;19.80;70.30
76211;DHT22;65003;49.518;11.280;2023-05-10T12:30:59;20.00;70.80
76211;DHT22;65003;49.518;11.280;2023-05-10T12:33:25;20.00;69.70
76211;DHT22;65003;49.518;11.280;2023-05-10T12:35:52;20.00;70.00
76211;DHT22;65003;49.518;11.280;2023-05-10T12:38:27;20.00;70.10
76211;DHT22;65003;49.518;11.280;2023-05-10T12:40:53;20.20;68.90
76211;DHT22;65003;49.518;11.280;2023-05-10T12:43:20;20.10;69.30
76211;DHT22;65003;49.518;11.280;2023-05-10T12:45:47;20.20;68.20
76211;DHT22;65003;49.518;11.280;2023-05-10T12:48:13;20.20;67.70
76211;DHT22;65003;49.518;11.280;2023-05-10T12:50:40;20.20;66.50
76211;DHT22;65003;49.518;11.280;2023-05-10T12:53:06;20.20;65.40
76211;DHT22;65003;49.518;11.280;2023-05-10T12:55:33;20.10;65.10
76211;DHT22;65003;49.518;11.280;2023-05-10T12:57:59;20.00;64.50
76211;DHT22;65003;49.518;11.280;2023-05-10T13:00:26;20.20;65.10
76211;DHT22;65003;49.518;11.280;2023-05-10T13:02:53;20.30;64.80
76211;DHT22;65003;49.518;11.280;2023-05-10T13:05:19;20.40;64.10
76211;DHT22;65003;49.518;11.280;2023-05-10T13:07:46;20.50;63.60
76211;DHT22;65003;49.518;11.280;2023-05-10T13:10:12;20.50;63.50
76211;DHT22;65003;49.518;11.280;2023-05-10T13:12:39;20.50;64.80
76211;DHT22;65003;49.518;11.280;2023-05-10T13:15:07;19.60;62.00
76211;DHT22;65003;49.518;11.280;2023-05-10T13:17:33;20.60;63.50
76211;DHT22;65003;49.518;11.280;2023-05-10T13:20:00;20.40;62.90
76211;DHT22;65003;49.518;11.280;2023-05-10T13:22:26;20.50;63.30
76211;DHT22;65003;49.518;11.280;2023-05-10T13:24:53;20.60;64.10
76211;DHT22;65003;49.518;11.280;2023-05-10T13:27:20;20.50;63.30
76211;DHT22;65003;49.518;11.280;2023-05-10T13:29:46;20.50;63.60
76211;DHT22;65003;49.518;11.280;2023-05-10T13:32:13;20.50;64.30
76211;DHT22;65003;49.518;11.280;2023-05-10T13:34:39;20.50;64.30
76211;DHT22;65003;49.518;11.280;2023-05-10T13:37:06;20.40;64.50
76211;DHT22;65003;49.518;11.280;2023-05-10T13:39:32;20.40;64.40
76211;DHT22;65003;49.518;11.280;2023-05-10T13:41:59;20.30;65.50
76211;DHT22;65003;49.518;11.280;2023-05-10T13:44:26;20.30;65.60
76211;DHT22;65003;49.518;11.280;2023-05-10T13:46:52;20.40;66.40
76211;DHT22;65003;49.518;11.280;2023-05-10T13:49:19;20.40;64.70
76211;DHT22;65003;49.518;11.280;2023-05-10T13:51:46;20.40;63.60
76211;DHT22;65003;49.518;11.280;2023-05-10T13:54:12;20.60;64.60
76211;DHT22;65003;49.518;11.280;2023-05-10T13:56:39;20.60;64.90
76211;DHT22;65003;49.518;11.280;2023-05-10T13:59:05;20.50;64.20
76211;DHT22;65003;49.518;11.280;2023-05-10T14:01:32;20.50;64.40
76211;DHT22;65003;49.518;11.280;2023-05-10T14:03:59;20.40;66.00
76211;DHT22;65003;49.518;11.280;2023-05-10T14:06:25;20.30;66.30
76211;DHT22;65003;49.518;11.280;2023-05-10T14:08:52;20.20;66.30
76211;DHT22;65003;49.518;11.280;2023-05-10T14:11:18;20.00;67.20
76211;DHT22;65003;49.518;11.280;2023-05-10T14:13:45;19.90;66.00
76211;DHT22;65003;49.518;11.280;2023-05-10T14:16:12;19.80;66.50
76211;DHT22;65003;49.518;11.280;2023-05-10T14:18:38;19.80;66.60
76211;DHT22;65003;49.518;11.280;2023-05-10T14:21:05;19.60;66.90
76211;DHT22;65003;49.518;11.280;2023-05-10T14:23:31;19.70;66.60
76211;DHT22;65003;49.518;11.280;2023-05-10T14:25:58;19.70;66.80
76211;DHT22;65003;49.518;11.280;2023-05-10T14:28:25;19.80;67.40
76211;DHT22;65003;49.518;11.280;2023-05-10T14:30:51;19.80;67.80
76211;DHT22;65003;49.518;11.280;2023-05-10T14:33:18;19.80;66.40
76211;DHT22;65003;49.518;11.280;2023-05-10T14:35:44;19.70;65.90
76211;DHT22;65003;49.518;11.280;2023-05-10T14:38:11;19.60;66.00
76211;DHT22;65003;49.518;11.280;2023-05-10T14:40:37;19.60;67.40
76211;DHT22;65003;49.518;11.280;2023-05-10T14:43:04;19.70;67.70
76211;DHT22;65003;49.518;11.280;2023-05-10T14:45:31;19.80;67.00
76211;DHT22;65003;49.518;11.280;2023-05-10T14:47:58;19.70;67.00
76211;DHT22;65003;49.518;11.280;2023-05-10T14:50:24;19.60;67.30
76211;DHT22;65003;49.518;11.280;2023-05-10T14:52:51;19.40;66.80
76211;DHT22;65003;49.518;11.280;2023-05-10T14:55:17;19.10;68.20
76211;DHT22;65003;49.518;11.280;2023-05-10T14:57:44;18.90;68.00
76211;DHT22;65003;49.518;11.280;2023-05-10T15:00:11;18.70;68.60
76211;DHT22;65003;49.518;11.280;2023-05-10T15:02:38;18.70;69.40
76211;DHT22;65003;49.518;11.280;2023-05-10T15:05:05;18.60;69.30
76211;DHT22;65003;49.518;11.280;2023-05-10T15:07:31;18.50;71.10
76211;DHT22;65003;49.518;11.280;2023-05-10T15:09:58;18.50;71.10
76211;DHT22;65003;49.518;11.280;2023-05-10T15:12:25;18.50;71.70
76211;DHT22;65003;49.518;11.280;2023-05-10T15:14:51;18.40;72.50
76211;DHT22;65003;49.518;11.280;2023-05-10T15:17:18;18.40;73.20